Holloman Air Force Base
KHMN : now visible

Airfield :











YOU CAN JOIN US ON...

 
LOGIN :

Register | Disclaimer

   EN    FR    IT 

 









Legend :    VFR   Marginal VFR   IFR   Intensive IFR   Very Intensive IFR
Visi :
Ceiling :
>= 8 km
>= 3000ft
5 to 8 km
1000 to 3000 ft
1500m to 5 km
500 to 1000 ft
800 to 1500m
200 to 500 ft
< 800m
< 200 ft
Symbols :   Thunderstorms  Fog  Heavy snow  Heavy precipitations  Wind > 20 kt






- Airport Elevation : 4093 ft


KHMN - Holloman Air Force Base

CURRENT METAR :
  • 221258Z AUTO 15007KT 10SM CLR 08/M02 A2994 RMK AO2 SLP097 T00811025 $

EXPIRED METARs :
  • 221158Z AUTO 16004KT 10SM CLR 09/M02 A2993 RMK AO2 SLP090 T00851022 10129 20085 52010 $
  • 221058Z AUTO 15009KT 10SM CLR 09/M02 A2991 RMK AO2 SLP083 T00911019 $

TAF TAF KHMN
Valid from the 22 at 01:00 until the 23 at 07:00 UTC


220100Z 2201/2307 18012G18KT 9999 FEW250 QNH2987INS
TEMPO 2201/2203 17015G25KT
BECMG 2206/2207 VRB06KT 9999 FEW180 QNH2990INS
BECMG 2214/2215 20012G18KT 9999 FEW200 QNH2994INS
BECMG 2216/2217 23015G25KT 9999 SCT200 QNH2975INS
BECMG 2302/2303 21012G18KT 9999 SCT150 BKN200 QNH2976INS TX25/2222Z TN12/2212Z
KZAB FIR / North America



MET'MAP, your aeronautical weather chart ! - Copyright ORBIFLY December 2007 - Disclaimer

ORBIFLY MET'MAP TEAM :

Programming & Development : Alexandra Zaïnal
Concept & original design : Baudouin d'Aumeries
Assistance for programming : Marc-Olivier Méhu
Technical & hardware support : Manuel Goepfert

Contact : metmap@orbifly.com




SOURCES & CREDITS :

   NOAA       Earth
Advisory